sensor_id;sensor_type;location;lat;lon;timestamp;P1;durP1;ratioP1;P2;durP2;ratioP2
1569;SDS011;778;50.120;8.698;2023-10-31T00:00:27;2.73;;;2.53;;
1569;SDS011;778;50.120;8.698;2023-10-31T00:02:57;2.50;;;2.40;;
1569;SDS011;778;50.120;8.698;2023-10-31T00:05:26;2.77;;;2.57;;
1569;SDS011;778;50.120;8.698;2023-10-31T00:07:55;2.40;;;2.20;;
1569;SDS011;778;50.120;8.698;2023-10-31T00:10:23;2.63;;;2.17;;
1569;SDS011;778;50.120;8.698;2023-10-31T00:12:52;2.50;;;1.90;;
1569;SDS011;778;50.120;8.698;2023-10-31T00:15:21;1.97;;;1.80;;
1569;SDS011;778;50.120;8.698;2023-10-31T00:17:51;2.03;;;1.93;;
1569;SDS011;778;50.120;8.698;2023-10-31T00:20:21;1.60;;;1.50;;
1569;SDS011;778;50.120;8.698;2023-10-31T00:22:49;2.47;;;2.37;;
1569;SDS011;778;50.120;8.698;2023-10-31T00:25:18;3.60;;;1.73;;
1569;SDS011;778;50.120;8.698;2023-10-31T00:27:47;4.20;;;1.70;;
1569;SDS011;778;50.120;8.698;2023-10-31T00:30:16;1.20;;;1.13;;
1569;SDS011;778;50.120;8.698;2023-10-31T00:32:45;1.60;;;1.40;;
1569;SDS011;778;50.120;8.698;2023-10-31T00:35:14;1.40;;;1.30;;
1569;SDS011;778;50.120;8.698;2023-10-31T00:37:44;1.80;;;1.50;;
1569;SDS011;778;50.120;8.698;2023-10-31T00:40:13;1.70;;;1.23;;
1569;SDS011;778;50.120;8.698;2023-10-31T00:42:43;1.57;;;1.10;;
1569;SDS011;778;50.120;8.698;2023-10-31T00:45:13;1.37;;;1.27;;
1569;SDS011;778;50.120;8.698;2023-10-31T00:47:42;2.30;;;1.20;;
1569;SDS011;778;50.120;8.698;2023-10-31T00:50:11;1.10;;;1.10;;
1569;SDS011;778;50.120;8.698;2023-10-31T00:52:40;1.10;;;1.00;;
1569;SDS011;778;50.120;8.698;2023-10-31T00:55:10;1.50;;;0.93;;
1569;SDS011;778;50.120;8.698;2023-10-31T00:57:39;1.47;;;1.20;;
1569;SDS011;778;50.120;8.698;2023-10-31T01:00:07;1.03;;;0.93;;
1569;SDS011;778;50.120;8.698;2023-10-31T01:02:37;0.80;;;0.60;;
1569;SDS011;778;50.120;8.698;2023-10-31T01:05:06;0.80;;;0.80;;
1569;SDS011;778;50.120;8.698;2023-10-31T01:07:35;0.77;;;0.60;;
1569;SDS011;778;50.120;8.698;2023-10-31T01:10:04;0.87;;;0.87;;
1569;SDS011;778;50.120;8.698;2023-10-31T01:12:35;2.10;;;0.80;;
1569;SDS011;778;50.120;8.698;2023-10-31T01:15:04;0.90;;;0.87;;
1569;SDS011;778;50.120;8.698;2023-10-31T01:17:33;1.00;;;0.70;;
1569;SDS011;778;50.120;8.698;2023-10-31T01:20:02;2.07;;;1.87;;
1569;SDS011;778;50.120;8.698;2023-10-31T01:22:31;0.70;;;0.70;;
1569;SDS011;778;50.120;8.698;2023-10-31T01:25:00;1.97;;;1.00;;
1569;SDS011;778;50.120;8.698;2023-10-31T01:27:29;0.67;;;0.67;;
1569;SDS011;778;50.120;8.698;2023-10-31T01:29:59;0.97;;;0.87;;
1569;SDS011;778;50.120;8.698;2023-10-31T01:32:28;0.80;;;0.80;;
1569;SDS011;778;50.120;8.698;2023-10-31T01:34:57;3.47;;;0.60;;
1569;SDS011;778;50.120;8.698;2023-10-31T01:37:25;0.60;;;0.60;;
1569;SDS011;778;50.120;8.698;2023-10-31T01:39:54;0.90;;;0.90;;
1569;SDS011;778;50.120;8.698;2023-10-31T01:42:23;0.93;;;0.80;;
1569;SDS011;778;50.120;8.698;2023-10-31T01:44:50;1.53;;;0.63;;
1569;SDS011;778;50.120;8.698;2023-10-31T01:47:20;1.73;;;1.10;;
1569;SDS011;778;50.120;8.698;2023-10-31T01:49:51;3.27;;;0.70;;
1569;SDS011;778;50.120;8.698;2023-10-31T01:52:20;0.60;;;0.60;;
1569;SDS011;778;50.120;8.698;2023-10-31T01:54:48;0.60;;;0.60;;
1569;SDS011;778;50.120;8.698;2023-10-31T01:57:18;1.53;;;0.70;;
1569;SDS011;778;50.120;8.698;2023-10-31T01:59:48;1.60;;;0.60;;
1569;SDS011;778;50.120;8.698;2023-10-31T02:02:17;2.80;;;1.10;;
1569;SDS011;778;50.120;8.698;2023-10-31T02:04:48;1.23;;;1.13;;
1569;SDS011;778;50.120;8.698;2023-10-31T02:07:17;0.83;;;0.50;;
1569;SDS011;778;50.120;8.698;2023-10-31T02:09:46;4.70;;;1.10;;
1569;SDS011;778;50.120;8.698;2023-10-31T02:14:59;1.67;;;0.60;;
1569;SDS011;778;50.120;8.698;2023-10-31T02:17:28;0.80;;;0.73;;
1569;SDS011;778;50.120;8.698;2023-10-31T02:19:58;1.67;;;0.63;;
1569;SDS011;778;50.120;8.698;2023-10-31T02:22:28;1.60;;;0.60;;
1569;SDS011;778;50.120;8.698;2023-10-31T02:24:57;2.40;;;0.90;;
1569;SDS011;778;50.120;8.698;2023-10-31T02:27:25;0.60;;;0.60;;
1569;SDS011;778;50.120;8.698;2023-10-31T02:29:54;1.17;;;0.63;;
1569;SDS011;778;50.120;8.698;2023-10-31T02:32:23;1.20;;;0.50;;
1569;SDS011;778;50.120;8.698;2023-10-31T02:34:53;0.60;;;0.50;;
1569;SDS011;778;50.120;8.698;2023-10-31T02:37:23;2.50;;;0.70;;
1569;SDS011;778;50.120;8.698;2023-10-31T02:39:53;0.80;;;0.80;;
1569;SDS011;778;50.120;8.698;2023-10-31T02:42:22;0.50;;;0.50;;
1569;SDS011;778;50.120;8.698;2023-10-31T02:44:51;1.33;;;0.90;;
1569;SDS011;778;50.120;8.698;2023-10-31T02:47:19;0.73;;;0.70;;
1569;SDS011;778;50.120;8.698;2023-10-31T02:49:48;1.03;;;0.73;;
1569;SDS011;778;50.120;8.698;2023-10-31T02:52:17;1.37;;;0.70;;
1569;SDS011;778;50.120;8.698;2023-10-31T02:54:45;1.10;;;0.60;;
1569;SDS011;778;50.120;8.698;2023-10-31T02:57:16;6.73;;;0.93;;
1569;SDS011;778;50.120;8.698;2023-10-31T02:59:44;1.00;;;0.60;;
1569;SDS011;778;50.120;8.698;2023-10-31T03:02:14;0.47;;;0.43;;
1569;SDS011;778;50.120;8.698;2023-10-31T03:04:42;1.10;;;0.60;;
1569;SDS011;778;50.120;8.698;2023-10-31T03:07:11;0.67;;;0.60;;
1569;SDS011;778;50.120;8.698;2023-10-31T03:09:40;1.20;;;0.73;;
1569;SDS011;778;50.120;8.698;2023-10-31T03:12:09;1.37;;;0.50;;
1569;SDS011;778;50.120;8.698;2023-10-31T03:14:39;2.00;;;0.57;;
1569;SDS011;778;50.120;8.698;2023-10-31T03:17:08;1.57;;;0.70;;
1569;SDS011;778;50.120;8.698;2023-10-31T03:19:36;2.80;;;0.53;;
1569;SDS011;778;50.120;8.698;2023-10-31T03:22:05;4.63;;;0.63;;
1569;SDS011;778;50.120;8.698;2023-10-31T03:24:34;1.87;;;0.87;;
1569;SDS011;778;50.120;8.698;2023-10-31T03:27:02;0.50;;;0.50;;
1569;SDS011;778;50.120;8.698;2023-10-31T03:29:31;0.93;;;0.60;;
1569;SDS011;778;50.120;8.698;2023-10-31T03:32:02;2.60;;;0.60;;
1569;SDS011;778;50.120;8.698;2023-10-31T03:34:31;1.03;;;0.57;;
1569;SDS011;778;50.120;8.698;2023-10-31T03:37:00;1.60;;;0.40;;
1569;SDS011;778;50.120;8.698;2023-10-31T03:39:29;0.60;;;0.60;;
1569;SDS011;778;50.120;8.698;2023-10-31T03:41:58;3.40;;;0.63;;
1569;SDS011;778;50.120;8.698;2023-10-31T03:44:27;0.80;;;0.70;;
1569;SDS011;778;50.120;8.698;2023-10-31T03:46:55;1.60;;;0.77;;
1569;SDS011;778;50.120;8.698;2023-10-31T03:49:26;2.40;;;0.70;;
1569;SDS011;778;50.120;8.698;2023-10-31T03:51:54;0.87;;;0.83;;
1569;SDS011;778;50.120;8.698;2023-10-31T03:54:23;0.60;;;0.60;;
1569;SDS011;778;50.120;8.698;2023-10-31T03:56:52;2.50;;;0.90;;
1569;SDS011;778;50.120;8.698;2023-10-31T03:59:20;0.40;;;0.40;;
1569;SDS011;778;50.120;8.698;2023-10-31T04:01:49;0.60;;;0.60;;
1569;SDS011;778;50.120;8.698;2023-10-31T04:04:18;1.90;;;0.60;;
1569;SDS011;778;50.120;8.698;2023-10-31T04:06:48;2.73;;;1.27;;
1569;SDS011;778;50.120;8.698;2023-10-31T04:09:17;0.70;;;0.70;;
1569;SDS011;778;50.120;8.698;2023-10-31T04:11:46;5.13;;;0.90;;
1569;SDS011;778;50.120;8.698;2023-10-31T04:14:15;0.57;;;0.57;;
1569;SDS011;778;50.120;8.698;2023-10-31T04:16:43;0.80;;;0.80;;
1569;SDS011;778;50.120;8.698;2023-10-31T04:19:12;1.60;;;0.73;;
1569;SDS011;778;50.120;8.698;2023-10-31T04:21:41;0.70;;;0.70;;
1569;SDS011;778;50.120;8.698;2023-10-31T04:24:11;0.70;;;0.70;;
1569;SDS011;778;50.120;8.698;2023-10-31T04:26:40;0.80;;;0.80;;
1569;SDS011;778;50.120;8.698;2023-10-31T04:29:09;0.87;;;0.73;;
1569;SDS011;778;50.120;8.698;2023-10-31T04:31:38;1.27;;;1.17;;
1569;SDS011;778;50.120;8.698;2023-10-31T04:34:10;0.70;;;0.70;;
1569;SDS011;778;50.120;8.698;2023-10-31T04:36:39;0.70;;;0.53;;
1569;SDS011;778;50.120;8.698;2023-10-31T04:39:08;1.20;;;1.10;;
1569;SDS011;778;50.120;8.698;2023-10-31T04:41:38;3.33;;;0.70;;
1569;SDS011;778;50.120;8.698;2023-10-31T04:44:07;1.20;;;0.80;;
1569;SDS011;778;50.120;8.698;2023-10-31T04:46:36;1.27;;;0.80;;
1569;SDS011;778;50.120;8.698;2023-10-31T04:49:04;0.80;;;0.70;;
1569;SDS011;778;50.120;8.698;2023-10-31T04:51:33;1.10;;;1.10;;
1569;SDS011;778;50.120;8.698;2023-10-31T04:54:02;1.03;;;1.00;;
1569;SDS011;778;50.120;8.698;2023-10-31T04:56:31;1.60;;;0.70;;
1569;SDS011;778;50.120;8.698;2023-10-31T04:59:02;3.43;;;0.80;;
1569;SDS011;778;50.120;8.698;2023-10-31T05:01:31;0.83;;;0.77;;
1569;SDS011;778;50.120;8.698;2023-10-31T05:03:59;1.30;;;0.83;;
1569;SDS011;778;50.120;8.698;2023-10-31T05:06:38;3.40;;;1.10;;
1569;SDS011;778;50.120;8.698;2023-10-31T05:09:07;3.80;;;0.90;;
1569;SDS011;778;50.120;8.698;2023-10-31T05:11:37;0.90;;;0.90;;
1569;SDS011;778;50.120;8.698;2023-10-31T05:14:08;2.30;;;1.20;;
1569;SDS011;778;50.120;8.698;2023-10-31T05:16:41;1.90;;;1.40;;
1569;SDS011;778;50.120;8.698;2023-10-31T05:19:10;2.70;;;1.10;;
1569;SDS011;778;50.120;8.698;2023-10-31T05:21:39;1.33;;;1.23;;
1569;SDS011;778;50.120;8.698;2023-10-31T05:24:08;2.20;;;1.20;;
1569;SDS011;778;50.120;8.698;2023-10-31T05:26:36;1.90;;;1.07;;
1569;SDS011;778;50.120;8.698;2023-10-31T05:29:08;1.37;;;1.27;;
1569;SDS011;778;50.120;8.698;2023-10-31T05:31:37;1.47;;;1.37;;
1569;SDS011;778;50.120;8.698;2023-10-31T05:34:05;1.73;;;1.33;;
1569;SDS011;778;50.120;8.698;2023-10-31T05:36:34;3.00;;;1.23;;
1569;SDS011;778;50.120;8.698;2023-10-31T05:39:03;1.70;;;1.50;;
1569;SDS011;778;50.120;8.698;2023-10-31T05:41:33;2.60;;;1.77;;
1569;SDS011;778;50.120;8.698;2023-10-31T05:44:01;2.80;;;1.20;;
1569;SDS011;778;50.120;8.698;2023-10-31T05:46:32;1.20;;;1.10;;
1569;SDS011;778;50.120;8.698;2023-10-31T05:49:06;2.20;;;2.00;;
1569;SDS011;778;50.120;8.698;2023-10-31T05:51:35;1.70;;;1.60;;
1569;SDS011;778;50.120;8.698;2023-10-31T05:54:06;2.07;;;1.00;;
1569;SDS011;778;50.120;8.698;2023-10-31T05:56:35;3.70;;;1.17;;
1569;SDS011;778;50.120;8.698;2023-10-31T05:59:04;1.33;;;1.10;;
1569;SDS011;778;50.120;8.698;2023-10-31T06:01:34;1.00;;;1.00;;
1569;SDS011;778;50.120;8.698;2023-10-31T06:04:03;5.13;;;1.23;;
1569;SDS011;778;50.120;8.698;2023-10-31T06:06:32;1.10;;;1.10;;
1569;SDS011;778;50.120;8.698;2023-10-31T06:09:04;1.37;;;1.27;;
1569;SDS011;778;50.120;8.698;2023-10-31T06:11:33;3.37;;;1.30;;
1569;SDS011;778;50.120;8.698;2023-10-31T06:14:01;2.00;;;1.20;;
1569;SDS011;778;50.120;8.698;2023-10-31T06:16:31;1.97;;;1.37;;
1569;SDS011;778;50.120;8.698;2023-10-31T06:19:01;1.70;;;0.97;;
1569;SDS011;778;50.120;8.698;2023-10-31T06:21:30;2.10;;;1.30;;
1569;SDS011;778;50.120;8.698;2023-10-31T06:23:59;2.13;;;1.20;;
1569;SDS011;778;50.120;8.698;2023-10-31T06:26:28;0.80;;;0.77;;
1569;SDS011;778;50.120;8.698;2023-10-31T06:28:57;1.00;;;0.83;;
1569;SDS011;778;50.120;8.698;2023-10-31T06:31:46;1.60;;;1.20;;
1569;SDS011;778;50.120;8.698;2023-10-31T06:34:16;1.57;;;1.27;;
1569;SDS011;778;50.120;8.698;2023-10-31T06:36:45;1.37;;;0.90;;
1569;SDS011;778;50.120;8.698;2023-10-31T06:39:14;1.20;;;1.10;;
1569;SDS011;778;50.120;8.698;2023-10-31T06:41:43;1.17;;;1.00;;
1569;SDS011;778;50.120;8.698;2023-10-31T06:44:12;1.13;;;0.97;;
1569;SDS011;778;50.120;8.698;2023-10-31T06:46:40;1.10;;;1.00;;
1569;SDS011;778;50.120;8.698;2023-10-31T06:49:09;1.00;;;0.90;;
1569;SDS011;778;50.120;8.698;2023-10-31T06:51:39;1.03;;;1.03;;
1569;SDS011;778;50.120;8.698;2023-10-31T06:54:08;3.50;;;0.80;;
1569;SDS011;778;50.120;8.698;2023-10-31T06:56:36;1.03;;;0.80;;
1569;SDS011;778;50.120;8.698;2023-10-31T06:59:05;1.47;;;1.10;;
1569;SDS011;778;50.120;8.698;2023-10-31T07:01:35;0.90;;;0.80;;
1569;SDS011;778;50.120;8.698;2023-10-31T07:04:04;1.30;;;0.90;;
1569;SDS011;778;50.120;8.698;2023-10-31T07:06:33;1.13;;;1.03;;
1569;SDS011;778;50.120;8.698;2023-10-31T07:09:03;3.37;;;0.80;;
1569;SDS011;778;50.120;8.698;2023-10-31T07:11:32;2.00;;;0.97;;
1569;SDS011;778;50.120;8.698;2023-10-31T07:14:01;1.70;;;0.97;;
1569;SDS011;778;50.120;8.698;2023-10-31T07:16:31;3.77;;;0.90;;
1569;SDS011;778;50.120;8.698;2023-10-31T07:19:00;1.63;;;1.10;;
1569;SDS011;778;50.120;8.698;2023-10-31T07:21:28;2.07;;;1.13;;
1569;SDS011;778;50.120;8.698;2023-10-31T07:23:57;1.13;;;0.67;;
1569;SDS011;778;50.120;8.698;2023-10-31T07:26:27;0.80;;;0.60;;
1569;SDS011;778;50.120;8.698;2023-10-31T07:28:56;3.57;;;1.33;;
1569;SDS011;778;50.120;8.698;2023-10-31T07:31:25;1.30;;;1.00;;
1569;SDS011;778;50.120;8.698;2023-10-31T07:33:53;1.00;;;0.90;;
1569;SDS011;778;50.120;8.698;2023-10-31T07:36:22;1.73;;;0.87;;
1569;SDS011;778;50.120;8.698;2023-10-31T07:38:51;1.30;;;0.87;;
1569;SDS011;778;50.120;8.698;2023-10-31T07:41:20;2.47;;;0.73;;
1569;SDS011;778;50.120;8.698;2023-10-31T07:43:50;1.33;;;0.87;;
1569;SDS011;778;50.120;8.698;2023-10-31T07:46:19;1.20;;;1.10;;
1569;SDS011;778;50.120;8.698;2023-10-31T07:48:48;1.57;;;0.83;;
1569;SDS011;778;50.120;8.698;2023-10-31T07:51:16;1.87;;;0.80;;
1569;SDS011;778;50.120;8.698;2023-10-31T07:53:45;2.50;;;1.23;;
1569;SDS011;778;50.120;8.698;2023-10-31T07:56:14;1.10;;;1.00;;
1569;SDS011;778;50.120;8.698;2023-10-31T07:58:43;2.77;;;1.13;;
1569;SDS011;778;50.120;8.698;2023-10-31T08:01:13;1.37;;;1.10;;
1569;SDS011;778;50.120;8.698;2023-10-31T08:03:42;1.17;;;0.90;;
1569;SDS011;778;50.120;8.698;2023-10-31T08:06:11;0.73;;;0.73;;
1569;SDS011;778;50.120;8.698;2023-10-31T08:08:40;0.80;;;0.63;;
1569;SDS011;778;50.120;8.698;2023-10-31T08:11:09;2.83;;;1.33;;
1569;SDS011;778;50.120;8.698;2023-10-31T08:13:38;2.30;;;0.93;;
1569;SDS011;778;50.120;8.698;2023-10-31T08:16:07;1.40;;;0.67;;
1569;SDS011;778;50.120;8.698;2023-10-31T08:18:37;3.13;;;1.10;;
1569;SDS011;778;50.120;8.698;2023-10-31T08:21:06;0.87;;;0.87;;
1569;SDS011;778;50.120;8.698;2023-10-31T08:23:35;1.20;;;0.87;;
1569;SDS011;778;50.120;8.698;2023-10-31T08:26:05;1.53;;;1.00;;
1569;SDS011;778;50.120;8.698;2023-10-31T08:28:33;1.03;;;0.70;;
1569;SDS011;778;50.120;8.698;2023-10-31T08:31:02;3.70;;;0.93;;
1569;SDS011;778;50.120;8.698;2023-10-31T08:33:31;1.03;;;0.73;;
1569;SDS011;778;50.120;8.698;2023-10-31T08:36:01;1.10;;;0.60;;
1569;SDS011;778;50.120;8.698;2023-10-31T08:38:30;1.13;;;0.93;;
1569;SDS011;778;50.120;8.698;2023-10-31T08:40:59;0.80;;;0.80;;
1569;SDS011;778;50.120;8.698;2023-10-31T08:43:28;0.80;;;0.80;;
1569;SDS011;778;50.120;8.698;2023-10-31T08:45:56;3.30;;;1.00;;
1569;SDS011;778;50.120;8.698;2023-10-31T08:48:25;2.70;;;1.00;;
1569;SDS011;778;50.120;8.698;2023-10-31T08:50:54;1.43;;;0.90;;
1569;SDS011;778;50.120;8.698;2023-10-31T08:53:24;1.23;;;1.13;;
1569;SDS011;778;50.120;8.698;2023-10-31T08:55:54;1.93;;;1.00;;
1569;SDS011;778;50.120;8.698;2023-10-31T08:58:23;1.80;;;0.90;;
1569;SDS011;778;50.120;8.698;2023-10-31T09:00:51;3.03;;;1.27;;
1569;SDS011;778;50.120;8.698;2023-10-31T09:03:20;1.33;;;0.83;;
1569;SDS011;778;50.120;8.698;2023-10-31T09:05:49;4.00;;;1.03;;
1569;SDS011;778;50.120;8.698;2023-10-31T09:08:20;2.17;;;1.13;;
1569;SDS011;778;50.120;8.698;2023-10-31T09:10:51;4.83;;;1.13;;
1569;SDS011;778;50.120;8.698;2023-10-31T09:13:20;1.23;;;1.13;;
1569;SDS011;778;50.120;8.698;2023-10-31T09:15:48;3.27;;;0.90;;
1569;SDS011;778;50.120;8.698;2023-10-31T09:18:17;2.03;;;1.60;;
1569;SDS011;778;50.120;8.698;2023-10-31T09:20:46;3.80;;;1.07;;
1569;SDS011;778;50.120;8.698;2023-10-31T09:23:14;1.47;;;0.70;;
1569;SDS011;778;50.120;8.698;2023-10-31T09:25:44;4.30;;;1.30;;
1569;SDS011;778;50.120;8.698;2023-10-31T09:28:14;2.80;;;1.07;;
1569;SDS011;778;50.120;8.698;2023-10-31T09:30:44;1.70;;;1.10;;
1569;SDS011;778;50.120;8.698;2023-10-31T09:33:13;1.37;;;0.83;;
1569;SDS011;778;50.120;8.698;2023-10-31T09:35:42;2.37;;;1.00;;
1569;SDS011;778;50.120;8.698;2023-10-31T09:38:11;1.13;;;0.90;;
1569;SDS011;778;50.120;8.698;2023-10-31T09:40:39;0.80;;;0.80;;
1569;SDS011;778;50.120;8.698;2023-10-31T09:43:08;1.53;;;1.20;;
1569;SDS011;778;50.120;8.698;2023-10-31T09:45:38;1.80;;;0.80;;
1569;SDS011;778;50.120;8.698;2023-10-31T09:48:08;2.40;;;0.70;;
1569;SDS011;778;50.120;8.698;2023-10-31T09:50:37;1.63;;;1.10;;
1569;SDS011;778;50.120;8.698;2023-10-31T09:53:06;3.47;;;1.97;;
1569;SDS011;778;50.120;8.698;2023-10-31T09:55:35;1.40;;;1.27;;
1569;SDS011;778;50.120;8.698;2023-10-31T09:58:04;3.57;;;1.30;;
1569;SDS011;778;50.120;8.698;2023-10-31T10:00:32;2.80;;;1.37;;
1569;SDS011;778;50.120;8.698;2023-10-31T10:03:04;3.10;;;1.57;;
1569;SDS011;778;50.120;8.698;2023-10-31T10:05:35;1.33;;;1.00;;
1569;SDS011;778;50.120;8.698;2023-10-31T10:08:04;2.30;;;1.07;;
1569;SDS011;778;50.120;8.698;2023-10-31T10:10:34;1.33;;;1.23;;
1569;SDS011;778;50.120;8.698;2023-10-31T10:13:02;7.63;;;1.87;;
1569;SDS011;778;50.120;8.698;2023-10-31T10:15:42;1.60;;;0.97;;
1569;SDS011;778;50.120;8.698;2023-10-31T10:18:22;1.40;;;1.30;;
1569;SDS011;778;50.120;8.698;2023-10-31T10:20:55;0.80;;;0.80;;
1569;SDS011;778;50.120;8.698;2023-10-31T10:23:25;2.50;;;1.37;;
1569;SDS011;778;50.120;8.698;2023-10-31T10:25:55;3.43;;;0.90;;
1569;SDS011;778;50.120;8.698;2023-10-31T10:28:25;2.67;;;1.37;;
1569;SDS011;778;50.120;8.698;2023-10-31T10:30:55;1.13;;;0.80;;
1569;SDS011;778;50.120;8.698;2023-10-31T10:33:25;1.17;;;0.70;;
1569;SDS011;778;50.120;8.698;2023-10-31T10:35:54;3.70;;;1.27;;
1569;SDS011;778;50.120;8.698;2023-10-31T10:38:23;3.23;;;1.03;;
1569;SDS011;778;50.120;8.698;2023-10-31T10:40:52;1.47;;;1.10;;
1569;SDS011;778;50.120;8.698;2023-10-31T10:43:22;6.03;;;1.27;;
1569;SDS011;778;50.120;8.698;2023-10-31T10:45:53;2.20;;;0.73;;
1569;SDS011;778;50.120;8.698;2023-10-31T10:48:24;0.93;;;0.80;;
1569;SDS011;778;50.120;8.698;2023-10-31T10:50:57;6.53;;;1.13;;
1569;SDS011;778;50.120;8.698;2023-10-31T10:53:29;1.57;;;0.80;;
1569;SDS011;778;50.120;8.698;2023-10-31T10:56:00;1.30;;;0.90;;
1569;SDS011;778;50.120;8.698;2023-10-31T10:58:50;1.67;;;0.90;;
1569;SDS011;778;50.120;8.698;2023-10-31T11:01:23;1.33;;;1.00;;
1569;SDS011;778;50.120;8.698;2023-10-31T11:03:56;3.80;;;1.20;;
1569;SDS011;778;50.120;8.698;2023-10-31T11:06:25;1.33;;;0.97;;
1569;SDS011;778;50.120;8.698;2023-10-31T11:08:54;4.00;;;1.33;;
1569;SDS011;778;50.120;8.698;2023-10-31T11:11:23;2.60;;;1.20;;
1569;SDS011;778;50.120;8.698;2023-10-31T11:13:53;1.27;;;1.00;;
1569;SDS011;778;50.120;8.698;2023-10-31T11:16:26;1.07;;;1.00;;
1569;SDS011;778;50.120;8.698;2023-10-31T11:18:59;1.20;;;1.00;;
1569;SDS011;778;50.120;8.698;2023-10-31T11:21:28;1.83;;;1.27;;
1569;SDS011;778;50.120;8.698;2023-10-31T11:23:57;2.90;;;1.40;;
1569;SDS011;778;50.120;8.698;2023-10-31T11:26:26;3.50;;;1.50;;
1569;SDS011;778;50.120;8.698;2023-10-31T11:29:02;2.10;;;0.93;;
1569;SDS011;778;50.120;8.698;2023-10-31T11:31:32;3.17;;;1.10;;
1569;SDS011;778;50.120;8.698;2023-10-31T11:34:02;2.67;;;1.47;;
1569;SDS011;778;50.120;8.698;2023-10-31T11:36:31;1.17;;;1.07;;
1569;SDS011;778;50.120;8.698;2023-10-31T11:39:10;1.80;;;1.50;;
1569;SDS011;778;50.120;8.698;2023-10-31T11:41:40;1.27;;;1.10;;
1569;SDS011;778;50.120;8.698;2023-10-31T11:44:15;1.23;;;0.87;;
1569;SDS011;778;50.120;8.698;2023-10-31T11:46:45;2.77;;;1.00;;
1569;SDS011;778;50.120;8.698;2023-10-31T11:49:18;3.30;;;1.40;;
1569;SDS011;778;50.120;8.698;2023-10-31T11:52:14;2.10;;;0.90;;
1569;SDS011;778;50.120;8.698;2023-10-31T11:54:43;1.80;;;0.93;;
1569;SDS011;778;50.120;8.698;2023-10-31T11:57:25;2.30;;;0.70;;
1569;SDS011;778;50.120;8.698;2023-10-31T11:59:55;2.70;;;1.20;;
1569;SDS011;778;50.120;8.698;2023-10-31T12:02:26;2.97;;;0.80;;
1569;SDS011;778;50.120;8.698;2023-10-31T12:05:07;1.97;;;0.70;;
1569;SDS011;778;50.120;8.698;2023-10-31T12:07:45;1.43;;;0.80;;
1569;SDS011;778;50.120;8.698;2023-10-31T12:10:20;1.90;;;1.27;;
1569;SDS011;778;50.120;8.698;2023-10-31T12:12:51;2.73;;;1.37;;
1569;SDS011;778;50.120;8.698;2023-10-31T12:15:20;2.77;;;1.37;;
1569;SDS011;778;50.120;8.698;2023-10-31T12:17:49;3.40;;;1.97;;
1569;SDS011;778;50.120;8.698;2023-10-31T12:20:19;2.30;;;1.40;;
1569;SDS011;778;50.120;8.698;2023-10-31T12:22:48;1.47;;;1.23;;
1569;SDS011;778;50.120;8.698;2023-10-31T12:25:30;2.10;;;1.30;;
1569;SDS011;778;50.120;8.698;2023-10-31T12:28:02;1.60;;;1.50;;
1569;SDS011;778;50.120;8.698;2023-10-31T12:30:31;2.00;;;1.40;;
1569;SDS011;778;50.120;8.698;2023-10-31T12:33:00;1.67;;;1.47;;
1569;SDS011;778;50.120;8.698;2023-10-31T12:35:30;1.50;;;1.03;;
1569;SDS011;778;50.120;8.698;2023-10-31T12:37:59;1.30;;;1.07;;
1569;SDS011;778;50.120;8.698;2023-10-31T12:40:28;2.67;;;1.80;;
1569;SDS011;778;50.120;8.698;2023-10-31T12:42:57;3.37;;;2.10;;
1569;SDS011;778;50.120;8.698;2023-10-31T12:45:26;2.93;;;1.17;;
1569;SDS011;778;50.120;8.698;2023-10-31T12:48:01;2.43;;;1.00;;
1569;SDS011;778;50.120;8.698;2023-10-31T12:50:33;4.20;;;1.30;;
1569;SDS011;778;50.120;8.698;2023-10-31T12:53:03;4.03;;;1.73;;
1569;SDS011;778;50.120;8.698;2023-10-31T12:55:37;4.37;;;1.47;;
1569;SDS011;778;50.120;8.698;2023-10-31T12:58:06;5.93;;;1.80;;
1569;SDS011;778;50.120;8.698;2023-10-31T13:00:37;3.80;;;1.50;;
1569;SDS011;778;50.120;8.698;2023-10-31T13:03:06;1.83;;;1.37;;
1569;SDS011;778;50.120;8.698;2023-10-31T13:05:37;1.70;;;1.43;;
1569;SDS011;778;50.120;8.698;2023-10-31T13:08:10;6.10;;;1.37;;
1569;SDS011;778;50.120;8.698;2023-10-31T13:10:42;2.20;;;1.10;;
1569;SDS011;778;50.120;8.698;2023-10-31T13:13:12;3.87;;;1.50;;
1569;SDS011;778;50.120;8.698;2023-10-31T13:15:40;2.90;;;1.50;;
1569;SDS011;778;50.120;8.698;2023-10-31T13:18:10;2.00;;;1.77;;
1569;SDS011;778;50.120;8.698;2023-10-31T13:20:42;4.47;;;2.37;;
1569;SDS011;778;50.120;8.698;2023-10-31T13:23:11;2.93;;;1.43;;
1569;SDS011;778;50.120;8.698;2023-10-31T13:25:40;3.93;;;1.50;;
1569;SDS011;778;50.120;8.698;2023-10-31T13:28:09;4.73;;;1.43;;
1569;SDS011;778;50.120;8.698;2023-10-31T13:30:39;5.30;;;2.03;;
1569;SDS011;778;50.120;8.698;2023-10-31T13:33:07;3.90;;;1.70;;
1569;SDS011;778;50.120;8.698;2023-10-31T13:35:36;3.73;;;1.70;;
1569;SDS011;778;50.120;8.698;2023-10-31T13:38:06;3.90;;;2.40;;
1569;SDS011;778;50.120;8.698;2023-10-31T13:40:35;6.10;;;2.30;;
1569;SDS011;778;50.120;8.698;2023-10-31T13:43:04;2.43;;;1.80;;
1569;SDS011;778;50.120;8.698;2023-10-31T13:45:32;4.23;;;2.10;;
1569;SDS011;778;50.120;8.698;2023-10-31T13:48:01;6.23;;;2.40;;
1569;SDS011;778;50.120;8.698;2023-10-31T13:50:30;3.83;;;2.10;;
1569;SDS011;778;50.120;8.698;2023-10-31T13:52:59;5.70;;;2.00;;
1569;SDS011;778;50.120;8.698;2023-10-31T13:55:31;3.83;;;1.50;;
1569;SDS011;778;50.120;8.698;2023-10-31T13:57:59;3.77;;;1.80;;
1569;SDS011;778;50.120;8.698;2023-10-31T14:00:28;2.10;;;1.87;;
1569;SDS011;778;50.120;8.698;2023-10-31T14:02:57;4.43;;;2.27;;
1569;SDS011;778;50.120;8.698;2023-10-31T14:05:25;3.30;;;1.40;;
1569;SDS011;778;50.120;8.698;2023-10-31T14:07:55;5.10;;;2.40;;
1569;SDS011;778;50.120;8.698;2023-10-31T14:10:23;6.97;;;2.23;;
1569;SDS011;778;50.120;8.698;2023-10-31T14:12:54;3.30;;;1.47;;
1569;SDS011;778;50.120;8.698;2023-10-31T14:15:23;4.00;;;1.50;;
1569;SDS011;778;50.120;8.698;2023-10-31T14:17:52;6.00;;;2.57;;
1569;SDS011;778;50.120;8.698;2023-10-31T14:20:20;4.40;;;2.00;;
1569;SDS011;778;50.120;8.698;2023-10-31T14:22:49;4.60;;;2.27;;
1569;SDS011;778;50.120;8.698;2023-10-31T14:25:20;5.90;;;2.37;;
1569;SDS011;778;50.120;8.698;2023-10-31T14:27:49;2.37;;;1.60;;
1569;SDS011;778;50.120;8.698;2023-10-31T14:30:19;3.40;;;2.73;;
1569;SDS011;778;50.120;8.698;2023-10-31T14:32:48;8.13;;;2.20;;
1569;SDS011;778;50.120;8.698;2023-10-31T14:35:17;6.90;;;1.83;;
1569;SDS011;778;50.120;8.698;2023-10-31T14:37:45;2.47;;;1.97;;
1569;SDS011;778;50.120;8.698;2023-10-31T14:40:14;2.20;;;1.20;;
1569;SDS011;778;50.120;8.698;2023-10-31T14:42:44;2.43;;;1.37;;
1569;SDS011;778;50.120;8.698;2023-10-31T14:45:12;1.67;;;1.40;;
1569;SDS011;778;50.120;8.698;2023-10-31T14:47:43;4.57;;;2.03;;
1569;SDS011;778;50.120;8.698;2023-10-31T14:50:11;2.60;;;1.53;;
1569;SDS011;778;50.120;8.698;2023-10-31T14:52:40;3.93;;;1.87;;
1569;SDS011;778;50.120;8.698;2023-10-31T14:55:09;3.23;;;2.10;;
1569;SDS011;778;50.120;8.698;2023-10-31T14:57:38;3.57;;;2.10;;
1569;SDS011;778;50.120;8.698;2023-10-31T15:00:07;4.40;;;2.00;;
1569;SDS011;778;50.120;8.698;2023-10-31T15:02:38;4.93;;;2.80;;
1569;SDS011;778;50.120;8.698;2023-10-31T15:05:09;6.03;;;2.30;;
1569;SDS011;778;50.120;8.698;2023-10-31T15:07:37;3.90;;;2.40;;
1569;SDS011;778;50.120;8.698;2023-10-31T15:10:07;6.10;;;2.33;;
1569;SDS011;778;50.120;8.698;2023-10-31T15:12:36;4.83;;;2.60;;
1569;SDS011;778;50.120;8.698;2023-10-31T15:15:05;4.20;;;1.97;;
1569;SDS011;778;50.120;8.698;2023-10-31T15:17:34;5.93;;;2.93;;
1569;SDS011;778;50.120;8.698;2023-10-31T15:20:03;3.93;;;2.27;;
1569;SDS011;778;50.120;8.698;2023-10-31T15:22:37;5.37;;;2.13;;
1569;SDS011;778;50.120;8.698;2023-10-31T15:25:06;6.67;;;2.73;;
1569;SDS011;778;50.120;8.698;2023-10-31T15:27:35;3.43;;;2.40;;
1569;SDS011;778;50.120;8.698;2023-10-31T15:30:06;5.40;;;3.30;;
1569;SDS011;778;50.120;8.698;2023-10-31T15:32:35;3.30;;;2.07;;
1569;SDS011;778;50.120;8.698;2023-10-31T15:35:04;4.50;;;3.63;;
1569;SDS011;778;50.120;8.698;2023-10-31T15:37:33;3.30;;;2.13;;
1569;SDS011;778;50.120;8.698;2023-10-31T15:40:04;6.33;;;2.43;;
1569;SDS011;778;50.120;8.698;2023-10-31T15:42:35;4.83;;;2.60;;
1569;SDS011;778;50.120;8.698;2023-10-31T15:45:04;3.37;;;1.50;;
1569;SDS011;778;50.120;8.698;2023-10-31T15:47:34;4.90;;;2.30;;